Latest Weather Observations for Wangaratta

IDV60801

Issued at 5:35 am EST Wednesday 1 October 2014 (issued every 30 minutes, with the page automatically refreshed every 10 minutes)

About weather observations | Map of weather stations | Latest weather observations for VIC | Other Formats
Station Details ID: 082138 Name: WANGARATTA AERO Lat: -36.42 Lon: 146.31 Height: 152.6 m
Data from the previous 72 hours. | See also: Recent months at Wangaratta
Date/Time
EST
Temp
°C
App
Temp
°C
Dew
Point
Rel
Hum
%
Delta-T
°C
Wind Press
QNH
hPa
Press
MSL
hPa
Rain
since 9 am
mm
Dir
 
Spd
km/h
Gust
km/h
Spd
kts
Gust
kts
01/05:30am 5.6 0.4 2.4 80 1.3 W 19 22 10 12 1019.7 1019.8 0.0
01/05:00am 5.5 1.0 2.3 80 1.3 W 15 19 8 10 1019.3 1019.4 0.0
01/04:30am 5.8 1.3 2.4 79 1.4 W 15 20 8 11 1018.8 1018.9 0.0
01/04:00am 6.2 1.3 2.1 75 1.7 W 17 22 9 12 1018.2 1018.4 0.0
01/03:30am 6.5 1.2 2.0 73 1.8 WSW 19 28 10 15 1017.8 1018.0 0.0
01/03:00am 6.9 1.6 2.0 71 2.0 WSW 19 28 10 15 1017.5 1017.6 0.0
01/02:30am 7.4 0.7 1.7 67 2.3 WSW 26 37 14 20 1017.0 1017.1 0.0
01/02:00am 7.6 1.7 1.7 66 2.4 WSW 22 33 12 18 1016.6 1016.7 0.0
01/01:30am 7.7 1.8 1.8 66 2.4 WSW 22 32 12 17 1016.4 1016.5 0.0
01/01:00am 8.4 2.2 2.2 65 2.6 W 24 37 13 20 1016.0 1016.1 0.0
01/12:30am 9.1 2.1 2.2 62 2.9 W 28 43 15 23 1015.7 1015.8 0.0
01/12:23am 9.3 2.0 2.4 62 2.9 WSW 30 43 16 23 1015.7 1015.8 0.0
01/12:00am 7.1 3.7 4.2 82 1.3 W 11 13 6 7 1015.6 1015.7 0.0
 
Date/Time
EST
Temp
°C
App
Temp
°C
Dew
Point
Rel
Hum
%
Delta-T
°C
Wind Press
QNH
hPa
Press
MSL
hPa
Rain
since 9 am
mm
Dir
 
Spd
km/h
Gust
km/h
Spd
kts
Gust
kts
30/11:30pm 7.0 4.0 4.3 83 1.2 SW 9 11 5 6 1015.3 1015.4 0.0
30/11:00pm 7.6 3.9 4.2 79 1.5 SSW 13 17 7 9 1015.1 1015.2 0.0
30/10:30pm 8.2 4.1 4.2 76 1.8 SW 15 19 8 10 1014.8 1014.9 0.0
30/10:00pm 8.9 4.4 4.1 72 2.1 SSW 17 22 9 12 1014.5 1014.6 0.0
30/09:30pm 10.0 5.1 4.2 67 2.6 SSW 19 24 10 13 1014.0 1014.1 0.0
30/09:00pm 11.1 6.0 3.9 61 3.2 SW 20 35 11 19 1013.4 1013.5 0.0
30/08:30pm 11.1 4.1 3.9 61 3.2 SW 30 44 16 24 1012.7 1012.8 0.0
30/08:18pm 11.7 4.9 3.0 55 3.8 SW 28 50 15 27 1013.2 1013.3 0.0
30/08:00pm 11.8 3.4 3.6 57 3.7 SW 37 50 20 27 1012.3 1012.4 0.0
30/07:31pm 13.0 3.9 6.6 65 3.1 SSW 44 63 24 34 1012.0 1012.0 0.0
30/07:30pm 13.1 3.6 6.5 64 3.2 SSW 46 63 25 34 1012.0 1012.0 0.0
30/07:26pm 13.5 4.0 6.6 63 3.3 SSW 46 56 25 30 1011.3 1011.4 0.0
30/07:01pm 14.9 6.2 7.9 63 3.5 WSW 43 61 23 33 1010.1 1010.2 0.0
30/07:00pm 15.0 6.2 8.0 63 3.5 WSW 44 61 24 33 1010.0 1010.1 0.0
30/06:34pm 17.2 9.0 8.1 55 4.7 WSW 41 59 22 32 1008.9 1009.0 0.0
30/06:30pm 17.7 10.1 7.7 52 5.1 WSW 37 52 20 28 1008.5 1008.6 0.0
30/06:01pm 20.6 12.7 4.2 34 8.0 W 35 70 19 38 1007.5 1007.6 0.0
30/06:00pm 21.0 13.4 3.7 32 8.4 W 33 52 18 28 1007.3 1007.4 0.0
30/05:59pm 21.0 13.5 3.7 32 8.3 W 32 52 17 28 1007.3 1007.4 0.0
30/05:30pm 21.7 15.5 6.0 36 8.0 WNW 28 37 15 20 1006.5 1006.5 0.0
30/05:00pm 21.3 15.5 6.4 38 7.6 WNW 26 35 14 19 1006.6 1006.6 0.0
30/04:30pm 22.1 15.5 5.9 35 8.2 WNW 30 39 16 21 1006.6 1006.6 0.0
30/04:00pm 22.5 15.0 6.3 35 8.3 WNW 35 59 19 32 1006.8 1006.9 0.0
30/03:32pm 22.4 15.8 7.8 39 7.7 NW 32 50 17 27 1007.1 1007.2 0.0
30/03:30pm 22.7 15.7 6.9 36 8.2 NW 33 50 18 27 1007.1 1007.2 0.0
30/03:02pm 22.3 16.4 7.7 39 7.7 NW 28 46 15 25 1007.5 1007.6 0.0
30/03:00pm 22.5 16.9 7.1 37 8.0 NW 26 43 14 23 1007.6 1007.7 0.0
30/02:35pm 21.5 15.2 7.3 40 7.4 NNW 30 48 16 26 1007.9 1008.0 0.0
30/02:30pm 22.2 16.6 8.7 42 7.2 NNW 28 39 15 21 1008.0 1008.1 0.0
30/02:00pm 21.9 16.6 8.4 42 7.2 NW 26 37 14 20 1008.8 1008.9 0.0
30/01:30pm 22.1 17.5 9.6 45 6.8 NNW 24 33 13 18 1009.3 1009.4 0.0
30/01:00pm 20.9 16.0 10.1 50 5.9 N 26 39 14 21 1009.6 1009.7 0.0
30/12:30pm 20.9 17.0 9.5 48 6.1 N 20 28 11 15 1009.9 1010.0 0.0
30/12:00pm 21.1 16.9 9.7 48 6.2 NNW 22 32 12 17 1010.5 1010.6 0.0
30/11:30am 20.1 17.0 8.8 48 6.0 N 15 28 8 15 1011.2 1011.3 0.0
30/11:00am 19.6 17.8 10.9 57 4.8 N 11 19 6 10 1012.0 1012.0 0.0
30/10:30am 18.9 17.0 10.5 58 4.6 NW 11 17 6 9 1012.5 1012.6 0.0
30/10:00am 17.9 16.9 11.0 64 3.8 N 7 15 4 8 1013.0 1013.1 0.0
30/09:30am 16.5 15.7 11.2 71 2.9 WSW 6 11 3 6 1013.5 1013.6 0.0
30/09:00am 14.8 13.8 11.0 78 2.0 WSW 7 13 4 7 1013.6 1013.7 0.0
30/08:30am 12.6 11.1 10.5 87 1.1 SSW 9 11 5 6 1013.6 1013.7 0.0
30/08:00am 11.1 11.2 10.2 94 0.5 CALM 0 0 0 0 1013.3 1013.4 0.0
30/07:30am 8.8 7.4 8.7 99 0.0 SSE 6 7 3 4 1013.3 1013.4 0.0
30/07:00am 7.0 5.9 6.9 99 0.0 SSW 2 7 1 4 1013.1 1013.2 0.0
30/06:30am 5.3 3.8 5.2 99 0.0 SSE 2 6 1 3 1013.0 1013.1 0.0
30/06:00am 4.6 2.6 4.5 99 0.0 SW 4 7 2 4 1012.7 1012.8 0.0
30/05:30am 4.7 2.7 4.6 99 0.0 W 4 7 2 4 1012.5 1012.6 0.0
30/05:00am 5.2 4.1 5.1 99 0.0 CALM 0 0 0 0 1012.5 1012.6 0.0
30/04:30am 5.4 4.3 5.3 99 0.0 CALM 0 0 0 0 1012.3 1012.4 0.0
30/04:00am 5.7 4.7 5.6 99 0.0 CALM 0 0 0 0 1012.4 1012.5 0.0
30/03:30am 6.2 5.3 6.1 99 0.0 CALM 0 0 0 0 1012.5 1012.6 0.0
30/03:00am 5.6 3.8 5.5 99 0.0 SW 4 7 2 4 1012.7 1012.8 0.0
30/02:30am 6.4 5.6 6.3 99 0.0 CALM 0 0 0 0 1012.9 1013.0 0.0
30/02:00am 6.4 5.2 6.3 99 0.0 NNE 2 7 1 4 1013.1 1013.2 0.0
30/01:30am 7.2 6.5 7.1 99 0.0 CALM 0 0 0 0 1013.5 1013.6 0.0
30/01:00am 7.5 6.5 7.4 99 0.0 S 2 6 1 3 1013.8 1013.9 0.0
30/12:30am 7.7 5.4 7.6 99 0.0 S 9 11 5 6 1014.1 1014.2 0.0
30/12:00am 7.8 5.6 7.7 99 0.0 SSW 9 9 5 5 1014.4 1014.5 0.0
 
Date/Time
EST
Temp
°C
App
Temp
°C
Dew
Point
Rel
Hum
%
Delta-T
°C
Wind Press
QNH
hPa
Press
MSL
hPa
Rain
since 9 am
mm
Dir
 
Spd
km/h
Gust
km/h
Spd
kts
Gust
kts
29/11:30pm 7.3 4.9 7.0 98 0.1 SSW 9 11 5 6 1014.6 1014.7 0.0
29/11:00pm 7.7 5.4 7.4 98 0.1 SSW 9 11 5 6 1014.7 1014.8 0.0
29/10:30pm 8.1 6.2 7.5 96 0.3 S 7 9 4 5 1014.8 1014.9 0.0
29/10:00pm 9.1 7.6 8.5 96 0.3 SE 6 7 3 4 1015.2 1015.3 0.0
29/09:30pm 9.7 8.7 8.8 94 0.4 S 4 6 2 3 1015.3 1015.4 0.0
29/09:00pm 10.6 10.4 9.2 91 0.7 CALM 0 0 0 0 1015.0 1015.1 0.0
29/08:30pm 11.0 10.9 9.3 89 0.9 CALM 0 0 0 0 1014.7 1014.8 0.0
29/08:00pm 11.6 11.5 9.3 86 1.2 CALM 0 0 0 0 1014.5 1014.6 0.0
29/07:30pm 13.1 13.0 9.5 79 1.8 CALM 0 0 0 0 1014.4 1014.5 0.0
29/07:00pm 14.3 13.1 9.7 74 2.4 ESE 6 7 3 4 1014.1 1014.2 0.0
29/06:30pm 16.0 14.6 9.0 63 3.6 E 6 9 3 5 1013.9 1014.0 0.0
29/06:00pm 18.7 17.8 10.5 59 4.4 W 6 7 3 4 1013.9 1014.0 0.0
29/05:30pm 19.8 18.4 9.4 51 5.6 NNW 7 11 4 6 1013.8 1013.9 0.0
29/05:00pm 20.5 17.7 8.5 46 6.3 NNW 13 17 7 9 1013.7 1013.8 0.0
29/04:30pm 21.3 19.4 9.2 46 6.5 NNW 9 15 5 8 1013.4 1013.5 0.0
29/04:00pm 21.0 17.8 8.3 44 6.7 NNW 15 19 8 10 1013.6 1013.7 0.0
29/03:30pm 21.2 18.6 7.8 42 7.0 NW 11 19 6 10 1013.6 1013.7 0.0
29/03:00pm 21.4 18.9 8.0 42 7.0 NW 11 17 6 9 1013.7 1013.8 0.0
29/02:30pm 21.1 18.1 7.7 42 7.0 NNW 13 24 7 13 1013.7 1013.8 0.0
29/02:00pm 20.7 17.5 8.4 45 6.5 NNW 15 20 8 11 1014.0 1014.1 0.0
29/01:30pm 20.8 18.2 9.4 48 6.1 N 13 19 7 10 1014.1 1014.2 0.0
29/01:00pm 20.7 18.6 8.4 45 6.5 NNE 9 11 5 6 1014.3 1014.4 0.0
29/12:30pm 20.0 17.7 7.4 44 6.5 NW 9 15 5 8 1014.7 1014.8 0.0
29/12:00pm 19.7 18.1 7.8 46 6.2 N 6 11 3 6 1015.0 1015.1 0.0
29/11:30am 19.3 17.7 8.0 48 5.9 WSW 6 9 3 5 1015.0 1015.1 0.0
29/11:00am 18.5 17.3 7.9 50 5.5 WNW 4 9 2 5 1015.3 1015.4 0.0
29/10:30am 17.9 16.2 7.6 51 5.3 WNW 6 13 3 7 1015.4 1015.5 0.0
29/10:00am 17.1 15.1 7.2 52 5.0 W 7 11 4 6 1015.3 1015.4 0.0
29/09:30am 16.4 14.0 6.8 53 4.8 W 9 11 5 6 1015.2 1015.3 0.0
29/09:00am 15.9 13.5 6.9 55 4.5 WNW 9 13 5 7 1015.1 1015.2 0.0
29/08:30am 15.4 12.9 6.4 55 4.4 NW 9 13 5 7 1014.9 1015.0 0.0
29/08:00am 14.9 13.0 6.5 57 4.1 NNW 6 9 3 5 1014.5 1014.6 0.0
29/07:30am 14.0 11.8 6.4 60 3.7 NNE 7 9 4 5 1014.2 1014.3 0.0
29/07:00am 12.2 11.1 6.7 69 2.6 ENE 2 7 1 4 1013.8 1013.9 0.0
29/06:30am 10.8 8.5 5.6 70 2.4 NE 7 11 4 6 1013.4 1013.5 0.0
29/06:00am 10.7 7.4 4.4 65 2.8 WNW 11 15 6 8 1012.8 1012.9 0.0
29/05:30am 13.0 8.9 4.2 55 4.0 WNW 15 20 8 11 1012.6 1012.7 0.0
29/05:00am 14.1 8.7 4.7 53 4.4 W 22 32 12 17 1012.0 1012.0 0.0
29/04:30am 14.0 10.9 5.4 56 4.1 NE 11 19 6 10 1011.5 1011.6 0.0
29/04:00am 15.0 10.8 5.5 53 4.6 W 17 26 9 14 1011.3 1011.4 0.0
29/03:30am 16.1 11.6 6.8 54 4.6 W 20 30 11 16 1010.9 1011.0 0.0
29/03:00am 15.3 11.6 6.3 55 4.4 N 15 19 8 10 1010.4 1010.5 0.0
29/02:30am 16.7 12.1 5.6 48 5.4 N 19 24 10 13 1010.2 1010.3 0.0
29/02:00am 16.2 12.0 5.8 50 5.1 N 17 20 9 11 1010.4 1010.5 0.0
29/01:30am 17.5 13.7 5.8 46 5.7 NNW 15 24 8 13 1010.5 1010.6 0.0
29/01:00am 16.9 13.2 6.4 50 5.2 N 15 22 8 12 1009.7 1009.8 0.0
29/12:30am 16.6 12.7 7.0 53 4.8 N 17 22 9 12 1009.5 1009.6 0.0
29/12:00am 16.9 13.5 7.5 54 4.8 N 15 19 8 10 1009.8 1009.9 0.0
 
Date/Time
EST
Temp
°C
App
Temp
°C
Dew
Point
Rel
Hum
%
Delta-T
°C
Wind Press
QNH
hPa
Press
MSL
hPa
Rain
since 9 am
mm
Dir
 
Spd
km/h
Gust
km/h
Spd
kts
Gust
kts
28/11:30pm 16.9 13.2 8.1 56 4.5 N 17 20 9 11 1009.9 1010.0 0.0
28/11:00pm 17.2 13.2 8.1 55 4.7 NNW 19 24 10 13 1010.3 1010.4 0.0
28/10:30pm 17.0 13.5 8.7 58 4.3 NNW 17 19 9 10 1010.6 1010.7 0.0
28/10:00pm 17.7 14.2 8.8 56 4.6 NNW 17 20 9 11 1010.8 1010.9 0.0
28/09:30pm 17.9 14.5 9.3 57 4.5 NNW 17 20 9 11 1011.1 1011.2 0.0
28/09:00pm 18.0 15.6 9.9 59 4.3 NNW 13 17 7 9 1011.4 1011.5 0.0
28/08:30pm 16.5 15.8 12.1 75 2.4 NNW 7 9 4 5 1011.5 1011.6 0.0
28/08:00pm 15.8 15.7 12.2 79 2.0 NE 4 9 2 5 1011.7 1011.7 0.0
28/07:30pm 16.3 17.2 12.8 80 2.0 CALM 0 0 0 0 1011.8 1011.8 0.0
28/07:00pm 16.3 17.1 12.7 79 2.0 CALM 0 0 0 0 1011.4 1011.5 0.0
28/06:30pm 17.8 17.0 11.8 68 3.3 ENE 7 9 4 5 1011.1 1011.2 0.0
28/06:00pm 19.6 18.5 11.9 61 4.3 ENE 9 11 5 6 1011.3 1011.4 0.0
28/05:30pm 22.0 19.4 12.0 53 5.7 NE 17 24 9 13 1011.0 1011.1 0.0
28/05:00pm 22.9 20.0 12.2 51 6.1 NE 19 28 10 15 1011.1 1011.2 0.0
28/04:30pm 23.4 20.7 11.8 48 6.6 NE 17 24 9 13 1012.2 1012.3 0.0
28/04:00pm 23.7 20.8 13.0 51 6.2 NNE 20 28 11 15 1012.5 1012.6 0.0
28/03:30pm 24.0 21.5 13.5 52 6.2 NNE 19 24 10 13 1012.9 1013.0 0.0
28/03:00pm 23.4 19.4 11.8 48 6.6 NNE 24 32 13 17 1013.2 1013.3 0.0
28/02:30pm 23.4 20.1 11.5 47 6.7 NNE 20 28 11 15 1013.7 1013.8 0.0
28/02:00pm 22.9 17.4 11.9 50 6.2 NNE 32 41 17 22 1013.7 1013.8 0.0
28/01:30pm 22.3 17.2 12.0 52 5.8 NNE 30 41 16 22 1014.3 1014.4 0.0
28/01:00pm 22.4 17.6 11.8 51 6.0 N 28 37 15 20 1014.9 1015.0 0.0
28/12:30pm 21.7 17.8 12.0 54 5.5 N 24 35 13 19 1015.6 1015.7 0.0
28/12:00pm 21.2 17.2 11.8 55 5.3 N 24 30 13 16 1016.6 1016.7 0.0
28/11:30am 20.9 17.2 12.8 60 4.6 NNE 24 32 13 17 1017.0 1017.1 0.0
28/11:00am 20.3 16.2 11.5 57 4.9 NNE 24 32 13 17 1017.8 1018.0 0.0
28/10:30am 19.0 15.1 9.5 54 5.1 N 20 26 11 14 1018.6 1018.7 0.0
28/10:00am 18.9 15.5 10.7 59 4.5 N 19 26 10 14 1019.2 1019.3 0.0
28/09:30am 16.9 15.5 11.0 68 3.2 N 9 11 5 6 1019.9 1020.0 0.0
28/09:00am 14.9 15.1 10.5 75 2.3 CALM 0 0 0 0 1020.2 1020.3 0.0
28/08:30am 13.3 13.5 10.5 83 1.5 CALM 0 0 0 0 1020.5 1020.6 0.0
28/08:00am 11.4 11.4 11.2 99 0.1 SSE 2 6 1 3 1020.6 1020.7 0.0
28/07:30am 9.9 9.5 9.8 99 0.1 SSW 2 7 1 4 1020.6 1020.7 0.0
28/07:00am 7.5 6.9 7.4 99 0.0 CALM 0 6 0 3 1020.2 1020.3 0.0
28/06:30am 5.7 3.6 5.6 99 0.0 SW 6 7 3 4 1020.1 1020.2 0.0
28/06:00am 5.7 3.4 5.6 99 0.0 S 7 7 4 4 1019.9 1020.0 0.0

Other Formats:

Comma delimited format used in spreadsheet applications
http://www.bom.gov.au/fwo/IDV60801/IDV60801.94889.axf

JavaScript Object Notation format (JSON) in row-major order
http://www.bom.gov.au/fwo/IDV60801/IDV60801.94889.json